Terminal Aerodrome Forecast
Issued by NWS

Current Version | Previous Version | Text Only | Print | Product List | Glossary On
Versions: 1 2 3 4 5 6 7 8 9 10 11 12 13 14 15 16 17 18 19 20 21 22 23 24 25 26 27 28
000
FTUS46 KMTR 051700
TAFSFO
TAF
KSFO 051739Z 0518/0624 25013G19KT P6SM FEW012 SCT018
     FM051900 28015G25KT P6SM SCT020
     FM052300 26022G28KT P6SM FEW020
     FM060600 26015G20KT P6SM SCT015
     FM060800 25013G18KT P6SM BKN015=

USA.gov is the U.S. government's official web portal to all federal, state and local government web resources and services.